Time;durP1;ratioP1;P1;durP2;ratioP2;P2;SDS_P1;SDS_P2;PMS_P1;PMS_P2;Temp;Humidity;BMP_temperature;BMP_pressure;BME280_temperature;BME280_humidity;BME280_pressure;Samples;Min_cycle;Max_cycle;Signal;HPM_P1;HPM_P2
2023/01/02 00:00:33;;;;;;;12.45;6.85;;;;;;;;;;5115626;27;20602;-74
2023/01/02 00:03:00;;;;;;;9.05;4.38;;;;;;;;;;5115751;27;20046;-73
2023/01/02 00:05:26;;;;;;;9.23;4.93;;;;;;;;;;5113275;27;20015;-74
2023/01/02 00:07:52;;;;;;;11.52;4.72;;;;;;;;;;5110414;27;20027;-75
2023/01/02 00:10:18;;;;;;;9.65;5.00;;;;;;;;;;5115557;27;20019;-73
2023/01/02 00:12:45;;;;;;;8.88;4.70;;;;;;;;;;5121422;27;20027;-73
2023/01/02 00:15:11;;;;;;;6.95;4.68;;;;;;;;;;5114353;27;20167;-72
2023/01/02 00:17:37;;;;;;;8.13;4.70;;;;;;;;;;5110107;27;20495;-72
2023/01/02 00:20:03;;;;;;;10.60;5.97;;;;;;;;;;5120957;27;20035;-74
2023/01/02 00:22:29;;;;;;;15.00;4.85;;;;;;;;;;5113703;27;20044;-73
2023/01/02 00:24:56;;;;;;;7.90;4.53;;;;;;;;;;5119287;27;20031;-72
2023/01/02 00:27:22;;;;;;;9.13;4.82;;;;;;;;;;5112375;27;20019;-72
2023/01/02 00:29:48;;;;;;;8.48;4.82;;;;;;;;;;5114561;27;20023;-73
2023/01/02 00:32:14;;;;;;;9.13;4.68;;;;;;;;;;5118411;27;20027;-73
2023/01/02 00:34:40;;;;;;;11.77;4.95;;;;;;;;;;5116336;27;20377;-73
2023/01/02 00:37:06;;;;;;;16.85;5.25;;;;;;;;;;5113213;27;20545;-72
2023/01/02 00:39:33;;;;;;;9.25;4.70;;;;;;;;;;5123913;27;20519;-72
2023/01/02 00:41:59;;;;;;;8.25;5.10;;;;;;;;;;5112696;27;20471;-72
2023/01/02 00:44:25;;;;;;;16.27;4.97;;;;;;;;;;5115967;27;20506;-73
2023/01/02 00:46:51;;;;;;;11.38;4.63;;;;;;;;;;5117209;27;20053;-73
2023/01/02 00:49:17;;;;;;;10.35;4.78;;;;;;;;;;5107177;27;20027;-76
2023/01/02 00:51:43;;;;;;;17.50;4.38;;;;;;;;;;5103451;27;20838;-73
2023/01/02 00:54:10;;;;;;;8.18;3.90;;;;;;;;;;5110887;27;20100;-73
2023/01/02 00:56:36;;;;;;;13.10;4.53;;;;;;;;;;5110848;27;20031;-73
2023/01/02 00:59:02;;;;;;;13.73;4.38;;;;;;;;;;5110725;27;20030;-73
2023/01/02 01:01:28;;;;;;;11.27;4.68;;;;;;;;;;5110254;27;20219;-75
2023/01/02 01:03:54;;;;;;;9.88;4.93;;;;;;;;;;5110614;27;20156;-73
2023/01/02 01:06:20;;;;;;;11.20;4.25;;;;;;;;;;5114460;27;20512;-73
2023/01/02 01:08:46;;;;;;;10.18;3.95;;;;;;;;;;5111427;27;20771;-73
2023/01/02 01:11:14;;;;;;;8.82;4.70;;;;;;;;;;5104113;27;20042;-73
2023/01/02 01:13:41;;;;;;;7.75;4.40;;;;;;;;;;5105366;27;20144;-73
2023/01/02 01:16:09;;;;;;;6.55;4.55;;;;;;;;;;5101998;27;20294;-73
2023/01/02 01:18:36;;;;;;;9.63;4.53;;;;;;;;;;5117836;27;20031;-74
2023/01/02 01:21:08;;;;;;;9.35;4.25;;;;;;;;;;5107854;27;20475;-73
2023/01/02 01:23:35;;;;;;;7.13;4.30;;;;;;;;;;5105164;27;20035;-73
2023/01/02 01:26:08;;;;;;;9.63;5.60;;;;;;;;;;5107007;27;20554;-73
2023/01/02 01:28:35;;;;;;;6.35;4.43;;;;;;;;;;5110933;27;20039;-73
2023/01/02 01:31:04;;;;;;;9.93;5.40;;;;;;;;;;5117390;27;20026;-73
2023/01/02 01:33:31;;;;;;;9.52;5.00;;;;;;;;;;5108408;27;20059;-73
2023/01/02 01:36:08;;;;;;;10.75;5.43;;;;;;;;;;5105679;27;20464;-73
2023/01/02 01:38:34;;;;;;;9.57;5.03;;;;;;;;;;5115746;27;20051;-73
2023/01/02 01:41:01;;;;;;;14.25;6.78;;;;;;;;;;5112395;27;20027;-73
2023/01/02 01:43:34;;;;;;;10.05;5.32;;;;;;;;;;5110345;27;20364;-72
2023/01/02 01:46:01;;;;;;;13.32;5.85;;;;;;;;;;5108421;27;20030;-73
2023/01/02 01:48:27;;;;;;;13.18;6.03;;;;;;;;;;5102810;27;20028;-73
2023/01/02 01:50:53;;;;;;;14.15;5.88;;;;;;;;;;5107656;27;20027;-73
2023/01/02 01:53:21;;;;;;;9.35;5.90;;;;;;;;;;5106933;27;20031;-73
2023/01/02 01:55:51;;;;;;;12.85;5.32;;;;;;;;;;5108609;27;20039;-73
2023/01/02 01:58:18;;;;;;;10.10;5.18;;;;;;;;;;5107772;27;20659;-73
2023/01/02 02:00:45;;;;;;;13.98;6.40;;;;;;;;;;5107618;27;20031;-73
2023/01/02 02:03:13;;;;;;;10.88;5.70;;;;;;;;;;5114264;27;20378;-73
2023/01/02 02:05:41;;;;;;;15.77;5.82;;;;;;;;;;5109857;27;20041;-73
2023/01/02 02:08:40;;;;;;;11.15;6.72;;;;;;;;;;5103987;27;20031;-73
2023/01/02 02:11:06;;;;;;;13.65;6.53;;;;;;;;;;5075703;27;20099;-73
2023/01/02 02:13:33;;;;;;;12.15;6.57;;;;;;;;;;5108581;27;20076;-73
2023/01/02 02:16:02;;;;;;;12.80;7.10;;;;;;;;;;5111828;27;20046;-73
2023/01/02 02:18:32;;;;;;;12.35;6.50;;;;;;;;;;5112957;27;20057;-73
2023/01/02 02:21:11;;;;;;;11.20;6.82;;;;;;;;;;5111967;27;20035;-73
2023/01/02 02:23:37;;;;;;;11.93;7.00;;;;;;;;;;5110056;27;20027;-73
2023/01/02 02:26:22;;;;;;;11.27;7.45;;;;;;;;;;5114709;27;20043;-73
2023/01/02 02:29:07;;;;;;;13.77;7.35;;;;;;;;;;5110464;27;20027;-72
2023/01/02 02:31:36;;;;;;;12.50;6.60;;;;;;;;;;5111924;27;20027;-73
2023/01/02 02:34:23;;;;;;;13.80;6.82;;;;;;;;;;5115760;27;20064;-73
2023/01/02 02:37:03;;;;;;;12.20;7.03;;;;;;;;;;5112574;27;20503;-73
2023/01/02 02:39:41;;;;;;;13.50;7.28;;;;;;;;;;5113938;27;20066;-74
2023/01/02 02:42:17;;;;;;;15.52;7.20;;;;;;;;;;5108387;27;20108;-72
2023/01/02 02:44:46;;;;;;;16.15;7.40;;;;;;;;;;5108394;27;20038;-73
2023/01/02 02:47:25;;;;;;;16.15;7.88;;;;;;;;;;5118610;27;20062;-73
2023/01/02 02:49:58;;;;;;;13.52;6.75;;;;;;;;;;5115797;27;20061;-73
2023/01/02 02:52:27;;;;;;;13.57;6.63;;;;;;;;;;5111437;27;20028;-73
2023/01/02 02:54:59;;;;;;;14.95;7.38;;;;;;;;;;5108910;27;20031;-73
2023/01/02 02:57:26;;;;;;;11.23;7.82;;;;;;;;;;5108856;27;20031;-73
2023/01/02 02:59:52;;;;;;;13.73;7.32;;;;;;;;;;5113739;27;20525;-73
2023/01/02 03:02:19;;;;;;;13.27;7.18;;;;;;;;;;5110629;27;20557;-73
2023/01/02 03:04:47;;;;;;;20.15;7.95;;;;;;;;;;5113843;27;20027;-74
2023/01/02 03:07:19;;;;;;;17.70;8.02;;;;;;;;;;5109415;27;20038;-73
2023/01/02 03:09:45;;;;;;;;;;;;;;;;;;5116846;27;20030;-73
2023/01/02 03:12:20;;;;;;;10.57;6.80;;;;;;;;;;5110741;27;20006;-73
2023/01/02 03:14:52;;;;;;;15.48;7.18;;;;;;;;;;5114820;27;20068;-73
2023/01/02 03:17:30;;;;;;;12.57;7.15;;;;;;;;;;5114681;27;20570;-73
2023/01/02 03:20:00;;;;;;;13.52;6.50;;;;;;;;;;5118827;27;20507;-73
2023/01/02 03:22:29;;;;;;;13.07;6.93;;;;;;;;;;5120327;27;20019;-73
2023/01/02 03:24:56;;;;;;;12.75;6.40;;;;;;;;;;5110163;27;20144;-73
2023/01/02 03:27:24;;;;;;;8.95;5.93;;;;;;;;;;5112783;27;20141;-73
2023/01/02 03:29:54;;;;;;;10.63;5.80;;;;;;;;;;5104344;27;20172;-73
2023/01/02 03:32:23;;;;;;;12.05;6.00;;;;;;;;;;5114829;27;20023;-73
2023/01/02 03:34:50;;;;;;;12.55;5.78;;;;;;;;;;5111391;27;20033;-73
2023/01/02 03:37:29;;;;;;;9.52;5.65;;;;;;;;;;5109286;27;20381;-73
2023/01/02 03:39:57;;;;;;;7.55;5.53;;;;;;;;;;5109692;27;20437;-73
2023/01/02 03:42:28;;;;;;;9.80;5.78;;;;;;;;;;5122857;27;20814;-72
2023/01/02 03:44:57;;;;;;;9.40;5.37;;;;;;;;;;5113787;27;20039;-72
2023/01/02 03:47:29;;;;;;;11.07;6.07;;;;;;;;;;5122276;27;20111;-72
2023/01/02 03:49:58;;;;;;;12.95;5.88;;;;;;;;;;5114433;27;20027;-72
2023/01/02 03:52:24;;;;;;;12.15;5.35;;;;;;;;;;5121073;27;20263;-72
2023/01/02 03:54:51;;;;;;;12.07;5.90;;;;;;;;;;5112891;27;20042;-73
2023/01/02 03:57:17;;;;;;;12.93;6.38;;;;;;;;;;5118999;27;20031;-72
2023/01/02 03:59:46;;;;;;;11.25;5.57;;;;;;;;;;5116591;27;20025;-73
2023/01/02 04:02:15;;;;;;;10.93;6.28;;;;;;;;;;5118541;27;20015;-72
2023/01/02 04:04:53;;;;;;;11.75;5.75;;;;;;;;;;5119110;27;20031;-73
2023/01/02 04:07:26;;;;;;;9.90;6.18;;;;;;;;;;5120357;27;20027;-73
2023/01/02 04:09:53;;;;;;;9.57;6.53;;;;;;;;;;5117424;27;20026;-73
2023/01/02 04:12:20;;;;;;;15.38;6.93;;;;;;;;;;5114254;27;20491;-73
2023/01/02 04:14:48;;;;;;;13.88;6.85;;;;;;;;;;5112770;27;20040;-73
2023/01/02 04:17:15;;;;;;;16.27;7.68;;;;;;;;;;5115867;27;20023;-73
2023/01/02 04:19:45;;;;;;;10.68;6.72;;;;;;;;;;5114346;27;20020;-72
2023/01/02 04:22:14;;;;;;;13.10;7.90;;;;;;;;;;5109116;27;20034;-73
2023/01/02 04:24:43;;;;;;;13.25;7.50;;;;;;;;;;5106859;27;20019;-72
2023/01/02 04:27:12;;;;;;;15.63;7.28;;;;;;;;;;5113559;27;20501;-72
2023/01/02 04:29:38;;;;;;;12.60;7.57;;;;;;;;;;5106974;27;20103;-73
2023/01/02 04:32:08;;;;;;;11.27;7.47;;;;;;;;;;5111893;27;20027;-73
2023/01/02 04:34:36;;;;;;;13.27;7.22;;;;;;;;;;5108274;27;20029;-73
2023/01/02 04:37:02;;;;;;;14.55;7.80;;;;;;;;;;5110024;27;20083;-73
2023/01/02 04:39:29;;;;;;;14.57;7.38;;;;;;;;;;5116806;27;20035;-72
2023/01/02 04:41:55;;;;;;;13.45;6.28;;;;;;;;;;5108555;27;20034;-72
2023/01/02 04:44:21;;;;;;;16.55;7.53;;;;;;;;;;5108148;27;20027;-73
2023/01/02 04:46:49;;;;;;;11.77;6.78;;;;;;;;;;5106918;27;20559;-73
2023/01/02 04:49:15;;;;;;;11.40;8.10;;;;;;;;;;5101863;27;20037;-73
2023/01/02 04:51:42;;;;;;;12.55;7.80;;;;;;;;;;5109033;27;20582;-73
2023/01/02 04:54:10;;;;;;;15.05;8.63;;;;;;;;;;5107180;27;20031;-72
2023/01/02 04:56:36;;;;;;;14.48;7.22;;;;;;;;;;5104215;27;20114;-73
2023/01/02 04:59:02;;;;;;;14.80;7.88;;;;;;;;;;5111776;27;20027;-73
2023/01/02 05:01:28;;;;;;;16.95;7.45;;;;;;;;;;5108114;27;20023;-73
2023/01/02 05:03:54;;;;;;;15.63;8.18;;;;;;;;;;5104602;27;20038;-73
2023/01/02 05:06:20;;;;;;;11.70;7.05;;;;;;;;;;5108781;27;20042;-73
2023/01/02 05:08:47;;;;;;;13.27;7.25;;;;;;;;;;5107414;27;20522;-73
2023/01/02 05:11:17;;;;;;;14.02;7.57;;;;;;;;;;5102222;27;20031;-73
2023/01/02 05:13:43;;;;;;;10.27;6.72;;;;;;;;;;5111684;27;20027;-73
2023/01/02 05:16:10;;;;;;;12.90;7.80;;;;;;;;;;5106715;27;20111;-73
2023/01/02 05:18:36;;;;;;;14.10;7.30;;;;;;;;;;5105123;27;20027;-73
2023/01/02 05:23:47;;;;;;;12.77;7.55;;;;;;;;;;5104691;27;20033;-73
2023/01/02 05:23:53;;;;;;;12.25;7.55;;;;;;;;;;5104241;27;20031;-74
2023/01/02 05:26:19;;;;;;;13.52;7.43;;;;;;;;;;5111064;27;20031;-73
2023/01/02 05:28:45;;;;;;;13.65;7.43;;;;;;;;;;5105478;27;20688;-73
2023/01/02 05:31:11;;;;;;;14.93;6.68;;;;;;;;;;5105490;27;20038;-73
2023/01/02 05:33:38;;;;;;;14.50;7.10;;;;;;;;;;5105962;27;20515;-73
2023/01/02 05:36:05;;;;;;;9.60;6.22;;;;;;;;;;5104350;27;20275;-73
2023/01/02 05:38:32;;;;;;;11.60;6.30;;;;;;;;;;5103293;27;20499;-72
2023/01/02 05:40:59;;;;;;;13.77;6.55;;;;;;;;;;5103582;27;20086;-73
2023/01/02 05:43:25;;;;;;;11.65;6.07;;;;;;;;;;5103889;27;20647;-73
2023/01/02 05:45:52;;;;;;;14.27;5.30;;;;;;;;;;5115378;27;20035;-73
2023/01/02 05:48:18;;;;;;;9.05;4.88;;;;;;;;;;5110163;27;20517;-73
2023/01/02 05:50:44;;;;;;;8.23;5.68;;;;;;;;;;5101817;27;20135;-73
2023/01/02 05:53:10;;;;;;;9.38;5.85;;;;;;;;;;5107696;27;20027;-72
2023/01/02 05:55:36;;;;;;;10.30;5.63;;;;;;;;;;5111957;27;20075;-72
2023/01/02 05:58:02;;;;;;;8.68;5.30;;;;;;;;;;5112666;27;20023;-73
2023/01/02 06:00:28;;;;;;;10.43;5.63;;;;;;;;;;5113342;27;20030;-73
2023/01/02 06:02:54;;;;;;;10.48;5.25;;;;;;;;;;5107393;27;20034;-72
2023/01/02 06:05:21;;;;;;;10.63;5.75;;;;;;;;;;5109764;27;20071;-73
2023/01/02 06:07:47;;;;;;;11.55;5.50;;;;;;;;;;5105579;27;20025;-74
2023/01/02 06:10:13;;;;;;;7.45;5.05;;;;;;;;;;5119231;27;20038;-73
2023/01/02 06:12:39;;;;;;;13.82;5.90;;;;;;;;;;5106642;27;20040;-73
2023/01/02 06:15:05;;;;;;;9.07;5.35;;;;;;;;;;5109556;27;20440;-73
2023/01/02 06:17:33;;;;;;;12.25;5.78;;;;;;;;;;5107582;27;20390;-73
2023/01/02 06:19:59;;;;;;;7.95;5.72;;;;;;;;;;5108228;27;20023;-73
2023/01/02 06:22:25;;;;;;;9.23;5.68;;;;;;;;;;5111652;27;20616;-73
2023/01/02 06:24:51;;;;;;;11.60;5.75;;;;;;;;;;5111575;27;20042;-73
2023/01/02 06:27:18;;;;;;;11.50;5.30;;;;;;;;;;5111493;27;20030;-73
2023/01/02 06:29:44;;;;;;;12.57;5.22;;;;;;;;;;5109919;27;20114;-73
2023/01/02 06:32:10;;;;;;;7.13;4.57;;;;;;;;;;5116596;27;20027;-73
2023/01/02 06:34:37;;;;;;;10.90;4.93;;;;;;;;;;5116975;27;20483;-74
2023/01/02 06:37:03;;;;;;;8.85;4.78;;;;;;;;;;5106338;27;20039;-73
2023/01/02 06:39:29;;;;;;;6.00;4.28;;;;;;;;;;5111420;27;20046;-72
2023/01/02 06:41:55;;;;;;;13.02;4.70;;;;;;;;;;5115774;27;20043;-72
2023/01/02 06:44:21;;;;;;;9.13;4.72;;;;;;;;;;5115518;27;20031;-73
2023/01/02 06:46:48;;;;;;;7.40;4.60;;;;;;;;;;5110734;27;20028;-73
2023/01/02 06:49:14;;;;;;;9.70;5.10;;;;;;;;;;5116763;27;20036;-74
2023/01/02 06:51:40;;;;;;;18.60;5.47;;;;;;;;;;5111524;27;20020;-74
2023/01/02 06:54:06;;;;;;;13.35;5.75;;;;;;;;;;5108661;27;20040;-73
2023/01/02 06:56:32;;;;;;;17.45;5.68;;;;;;;;;;5107382;27;20042;-73
2023/01/02 06:58:58;;;;;;;9.20;4.85;;;;;;;;;;5109118;27;20030;-73
2023/01/02 07:01:25;;;;;;;12.18;5.80;;;;;;;;;;5109297;27;20056;-73
2023/01/02 07:03:51;;;;;;;11.52;5.25;;;;;;;;;;5114532;27;20486;-73
2023/01/02 07:06:18;;;;;;;10.63;5.18;;;;;;;;;;5117809;27;20151;-73
2023/01/02 07:08:45;;;;;;;11.85;5.75;;;;;;;;;;5109982;27;20015;-73
2023/01/02 07:11:16;;;;;;;8.38;5.45;;;;;;;;;;5106230;27;20054;-73
2023/01/02 07:13:43;;;;;;;7.65;5.10;;;;;;;;;;5115657;27;20392;-74
2023/01/02 07:16:11;;;;;;;6.65;4.82;;;;;;;;;;5104164;27;20059;-73
2023/01/02 07:18:37;;;;;;;10.65;4.97;;;;;;;;;;5116828;27;20098;-74
2023/01/02 07:21:04;;;;;;;10.15;6.50;;;;;;;;;;5116316;27;20027;-73
2023/01/02 07:23:30;;;;;;;14.27;6.70;;;;;;;;;;5112578;27;20080;-73
2023/01/02 07:26:00;;;;;;;12.05;5.72;;;;;;;;;;5103643;27;20034;-73
2023/01/02 07:28:27;;;;;;;9.38;5.47;;;;;;;;;;5110112;27;20051;-73
2023/01/02 07:30:56;;;;;;;7.78;5.25;;;;;;;;;;5110907;27;20027;-74
2023/01/02 07:33:23;;;;;;;8.05;5.53;;;;;;;;;;5115460;27;20093;-73
2023/01/02 07:35:49;;;;;;;8.88;5.53;;;;;;;;;;5104180;27;20762;-74
2023/01/02 07:38:15;;;;;;;13.10;5.97;;;;;;;;;;5113935;27;20128;-73
2023/01/02 07:40:42;;;;;;;8.70;5.15;;;;;;;;;;5120227;27;20031;-73
2023/01/02 07:43:08;;;;;;;9.20;6.10;;;;;;;;;;5105415;27;20031;-74
2023/01/02 07:45:34;;;;;;;10.30;5.75;;;;;;;;;;5114121;27;20024;-74
2023/01/02 07:48:00;;;;;;;8.30;6.05;;;;;;;;;;5110657;27;20015;-73
2023/01/02 07:50:27;;;;;;;16.05;6.85;;;;;;;;;;5111922;27;20055;-75
2023/01/02 07:52:53;;;;;;;14.23;7.35;;;;;;;;;;5116865;27;20067;-74
2023/01/02 07:55:19;;;;;;;13.13;6.35;;;;;;;;;;5110702;27;20063;-74
2023/01/02 07:57:49;;;;;;;7.80;5.72;;;;;;;;;;5102049;27;20028;-74
2023/01/02 08:00:20;;;;;;;10.63;5.95;;;;;;;;;;5108880;27;20044;-74
2023/01/02 08:02:48;;;;;;;9.80;6.23;;;;;;;;;;5108590;27;20047;-74
2023/01/02 08:05:15;;;;;;;14.55;6.90;;;;;;;;;;5104274;27;20051;-74
2023/01/02 08:07:43;;;;;;;7.90;5.40;;;;;;;;;;5114484;27;20031;-74
2023/01/02 08:10:10;;;;;;;10.90;6.32;;;;;;;;;;5103403;27;20027;-74
2023/01/02 08:12:36;;;;;;;10.07;6.25;;;;;;;;;;5114582;27;21105;-73
2023/01/02 08:15:02;;;;;;;13.20;6.95;;;;;;;;;;5119510;27;20821;-73
2023/01/02 08:17:30;;;;;;;10.82;6.53;;;;;;;;;;5112579;27;20031;-73
2023/01/02 08:19:56;;;;;;;9.20;6.70;;;;;;;;;;5110327;27;20054;-74
2023/01/02 08:22:22;;;;;;;8.63;5.90;;;;;;;;;;5103935;27;20027;-74
2023/01/02 08:24:49;;;;;;;9.98;6.00;;;;;;;;;;5110937;27;20047;-74
2023/01/02 08:27:15;;;;;;;11.07;6.25;;;;;;;;;;5107598;27;20095;-74
2023/01/02 08:29:42;;;;;;;8.18;5.60;;;;;;;;;;5105928;27;20027;-74
2023/01/02 08:32:08;;;;;;;10.80;6.70;;;;;;;;;;5105827;27;20015;-75
2023/01/02 08:34:35;;;;;;;10.80;6.20;;;;;;;;;;5116590;27;20031;-76
2023/01/02 08:37:02;;;;;;;12.20;6.10;;;;;;;;;;5107717;27;20026;-74
2023/01/02 08:39:29;;;;;;;11.75;6.75;;;;;;;;;;5106352;27;20047;-75
2023/01/02 08:41:57;;;;;;;11.70;7.50;;;;;;;;;;5107731;27;20043;-74
2023/01/02 08:44:23;;;;;;;19.88;7.88;;;;;;;;;;5113485;27;20027;-74
2023/01/02 08:46:49;;;;;;;12.20;7.65;;;;;;;;;;5107300;27;20022;-75
2023/01/02 08:49:16;;;;;;;10.18;7.57;;;;;;;;;;5104624;27;20041;-74
2023/01/02 08:51:42;;;;;;;19.50;8.43;;;;;;;;;;5110031;27;20035;-75
2023/01/02 08:54:08;;;;;;;11.57;7.72;;;;;;;;;;5106100;27;20611;-74
2023/01/02 08:56:36;;;;;;;15.75;8.07;;;;;;;;;;5110787;27;20734;-73
2023/01/02 08:59:05;;;;;;;12.43;7.72;;;;;;;;;;5105715;27;20444;-74
2023/01/02 09:01:32;;;;;;;12.32;7.38;;;;;;;;;;5107966;27;20023;-74
2023/01/02 09:03:58;;;;;;;13.63;8.27;;;;;;;;;;5103729;27;20031;-74
2023/01/02 09:06:26;;;;;;;16.80;8.60;;;;;;;;;;5105930;27;20019;-74
2023/01/02 09:08:54;;;;;;;14.40;7.88;;;;;;;;;;5104343;27;20877;-74
2023/01/02 09:11:27;;;;;;;16.98;8.50;;;;;;;;;;5103007;27;20023;-74
2023/01/02 09:13:54;;;;;;;14.70;7.47;;;;;;;;;;5104181;27;20502;-73
2023/01/02 09:16:21;;;;;;;15.70;7.50;;;;;;;;;;5107555;27;20035;-74
2023/01/02 09:18:48;;;;;;;13.55;7.07;;;;;;;;;;5115016;27;20574;-74
2023/01/02 09:21:14;;;;;;;10.85;7.53;;;;;;;;;;5119711;27;20035;-74
2023/01/02 09:23:40;;;;;;;12.43;6.95;;;;;;;;;;5110016;27;20016;-73
2023/01/02 09:26:07;;;;;;;13.70;6.85;;;;;;;;;;5107556;27;20074;-74
2023/01/02 09:28:34;;;;;;;10.32;6.35;;;;;;;;;;5108469;27;20019;-76
2023/01/02 09:31:03;;;;;;;13.75;8.13;;;;;;;;;;5112623;27;20520;-74
2023/01/02 09:33:30;;;;;;;14.10;7.90;;;;;;;;;;5108844;27;20027;-75
2023/01/02 09:35:56;;;;;;;16.95;7.97;;;;;;;;;;5108926;27;20031;-74
2023/01/02 09:38:22;;;;;;;9.75;7.05;;;;;;;;;;5105208;27;20877;-74
2023/01/02 09:40:51;;;;;;;13.27;7.32;;;;;;;;;;5106995;27;20020;-74
2023/01/02 09:43:20;;;;;;;10.43;6.90;;;;;;;;;;5119322;27;20019;-74
2023/01/02 09:45:48;;;;;;;14.40;8.95;;;;;;;;;;5110178;27;20016;-74
2023/01/02 09:48:16;;;;;;;11.07;7.90;;;;;;;;;;5110565;27;20517;-75
2023/01/02 09:50:43;;;;;;;13.68;8.55;;;;;;;;;;5108886;27;20116;-74
2023/01/02 09:53:09;;;;;;;9.27;6.45;;;;;;;;;;5114207;27;20027;-74
2023/01/02 09:55:54;;;;;;;14.40;8.30;;;;;;;;;;5113738;27;20179;-74
2023/01/02 09:58:36;;;;;;;18.77;8.38;;;;;;;;;;5109865;27;20200;-74
2023/01/02 10:01:02;;;;;;;10.82;7.60;;;;;;;;;;5109686;27;20168;-75
2023/01/02 10:03:47;;;;;;;11.63;8.25;;;;;;;;;;5122081;27;20023;-74
2023/01/02 10:06:19;;;;;;;13.85;8.57;;;;;;;;;;5111708;27;20023;-74
2023/01/02 10:08:50;;;;;;;15.07;8.95;;;;;;;;;;5119482;27;20019;-73
2023/01/02 10:11:16;;;;;;;13.45;8.07;;;;;;;;;;5106952;27;20015;-75
2023/01/02 10:13:51;;;;;;;12.13;8.35;;;;;;;;;;5114782;27;20458;-74
2023/01/02 10:16:19;;;;;;;14.50;7.53;;;;;;;;;;5111580;27;20035;-74
2023/01/02 10:18:48;;;;;;;14.68;7.25;;;;;;;;;;5118625;27;20019;-74
2023/01/02 10:21:20;;;;;;;11.48;7.00;;;;;;;;;;5105394;27;20073;-74
2023/01/02 10:23:46;;;;;;;;;;;;;;;;;;5115001;27;20038;-74
2023/01/02 10:26:17;;;;;;;8.15;6.03;;;;;;;;;;5122148;27;19904;-74
2023/01/02 10:28:57;;;;;;;10.85;7.05;;;;;;;;;;5115080;27;20591;-74
2023/01/02 10:31:28;;;;;;;12.98;6.57;;;;;;;;;;5112617;27;20034;-74
2023/01/02 10:33:58;;;;;;;8.38;6.43;;;;;;;;;;5115534;27;20046;-74
2023/01/02 10:36:26;;;;;;;8.73;6.03;;;;;;;;;;5108901;27;20031;-74
2023/01/02 10:38:57;;;;;;;8.27;6.40;;;;;;;;;;5114837;27;20693;-74
2023/01/02 10:41:24;;;;;;;11.93;7.35;;;;;;;;;;5113769;27;20102;-73
2023/01/02 10:43:53;;;;;;;11.52;6.43;;;;;;;;;;5114764;27;20406;-74
2023/01/02 10:46:19;;;;;;;14.27;10.30;;;;;;;;;;5107048;27;20019;-74
2023/01/02 10:48:45;;;;;;;14.38;9.90;;;;;;;;;;5126309;27;20030;-73
2023/01/02 10:51:14;;;;;;;21.77;13.20;;;;;;;;;;5117533;27;20555;-74
2023/01/02 10:53:40;;;;;;;13.30;8.43;;;;;;;;;;5119579;27;20440;-74
2023/01/02 10:56:15;;;;;;;11.88;6.53;;;;;;;;;;5109863;27;20118;-74
2023/01/02 10:58:46;;;;;;;13.38;6.00;;;;;;;;;;5110357;27;20011;-74
2023/01/02 11:01:17;;;;;;;13.80;7.63;;;;;;;;;;5127664;27;20016;-74
2023/01/02 11:03:43;;;;;;;13.43;8.50;;;;;;;;;;5111911;27;20022;-74
2023/01/02 11:06:20;;;;;;;17.83;13.13;;;;;;;;;;5111399;27;20154;-74
2023/01/02 11:08:55;;;;;;;13.32;7.55;;;;;;;;;;5112513;27;20424;-74
2023/01/02 11:11:22;;;;;;;10.13;6.38;;;;;;;;;;5115600;27;20015;-74
2023/01/02 11:13:56;;;;;;;16.92;10.20;;;;;;;;;;5116156;27;20024;-73
2023/01/02 11:16:26;;;;;;;20.33;13.15;;;;;;;;;;5113913;27;20118;-74
2023/01/02 11:18:53;;;;;;;24.83;16.42;;;;;;;;;;5109648;27;20066;-74
2023/01/02 11:21:24;;;;;;;23.55;14.70;;;;;;;;;;5119599;27;20048;-74
2023/01/02 11:23:50;;;;;;;13.10;7.45;;;;;;;;;;5118101;27;20123;-74
2023/01/02 11:26:20;;;;;;;9.50;6.32;;;;;;;;;;5115871;27;20016;-73
2023/01/02 11:28:48;;;;;;;13.05;6.43;;;;;;;;;;5111699;27;20023;-76
2023/01/02 11:31:15;;;;;;;9.95;6.18;;;;;;;;;;5109502;27;20011;-74
2023/01/02 11:33:42;;;;;;;12.98;5.90;;;;;;;;;;5115712;27;20020;-74
2023/01/02 11:36:11;;;;;;;10.10;6.30;;;;;;;;;;5119763;27;20036;-73
2023/01/02 11:38:52;;;;;;;9.60;6.55;;;;;;;;;;5119684;27;20062;-74
2023/01/02 11:44:18;;;;;;;10.13;6.07;;;;;;;;;;5108164;27;20151;-74
2023/01/02 11:46:44;;;;;;;9.90;5.97;;;;;;;;;;5121100;27;20019;-75
2023/01/02 11:49:15;;;;;;;7.57;5.78;;;;;;;;;;5116477;27;20031;-74
2023/01/02 11:51:41;;;;;;;7.65;4.70;;;;;;;;;;5109239;27;20015;-74
2023/01/02 11:54:18;;;;;;;9.00;6.25;;;;;;;;;;5115023;27;20020;-73
2023/01/02 11:56:45;;;;;;;13.45;9.60;;;;;;;;;;5111516;27;20031;-74
2023/01/02 11:59:17;;;;;;;68.63;39.45;;;;;;;;;;5122767;27;20634;-74
2023/01/02 12:01:43;;;;;;;62.42;36.05;;;;;;;;;;5109725;27;20353;-73
2023/01/02 12:04:10;;;;;;;45.22;27.98;;;;;;;;;;5110814;27;20027;-74
2023/01/02 12:07:02;;;;;;;71.68;38.25;;;;;;;;;;5117938;27;20027;-74
2023/01/02 12:09:41;;;;;;;86.05;41.72;;;;;;;;;;5109598;27;20035;-74
2023/01/02 12:12:17;;;;;;;88.95;42.30;;;;;;;;;;5113181;27;20477;-74
2023/01/02 12:14:52;;;;;;;83.95;43.60;;;;;;;;;;5111008;27;20035;-74
2023/01/02 12:17:21;;;;;;;64.88;40.10;;;;;;;;;;5125247;27;20520;-74
2023/01/02 12:19:56;;;;;;;42.80;26.33;;;;;;;;;;5116392;27;20024;-74
2023/01/02 12:22:25;;;;;;;50.25;28.27;;;;;;;;;;5108473;27;20023;-74
2023/01/02 12:25:10;;;;;;;50.50;32.60;;;;;;;;;;5106710;27;20024;-74
2023/01/02 12:27:45;;;;;;;88.13;56.72;;;;;;;;;;5110556;27;20033;-74
2023/01/02 12:30:21;;;;;;;186.48;115.80;;;;;;;;;;5122848;27;20078;-74
2023/01/02 12:32:56;;;;;;;87.28;59.08;;;;;;;;;;5117550;27;20514;-74
2023/01/02 12:35:28;;;;;;;53.78;41.65;;;;;;;;;;5111582;27;20042;-74
2023/01/02 12:37:56;;;;;;;45.97;38.38;;;;;;;;;;5109102;27;20038;-74
2023/01/02 12:40:25;;;;;;;53.50;46.45;;;;;;;;;;5118421;27;20034;-74
2023/01/02 12:43:01;;;;;;;70.32;51.38;;;;;;;;;;5122939;27;20018;-74
2023/01/02 12:45:46;;;;;;;70.40;48.92;;;;;;;;;;5110767;27;20075;-74
2023/01/02 12:48:12;;;;;;;41.25;25.95;;;;;;;;;;5113688;27;20471;-74
2023/01/02 12:51:01;;;;;;;31.10;21.55;;;;;;;;;;5112782;27;20017;-75
2023/01/02 12:53:30;;;;;;;17.02;11.10;;;;;;;;;;5103714;27;20041;-73
2023/01/02 12:56:06;;;;;;;14.38;7.85;;;;;;;;;;5106575;27;20034;-74
2023/01/02 12:58:39;;;;;;;7.70;5.95;;;;;;;;;;5113720;27;20015;-74
2023/01/02 13:01:14;;;;;;;10.05;6.03;;;;;;;;;;5107946;27;20032;-74
2023/01/02 13:03:53;;;;;;;10.20;5.30;;;;;;;;;;5108967;27;20016;-74
2023/01/02 13:06:26;;;;;;;10.88;5.55;;;;;;;;;;5109837;27;20027;-74
2023/01/02 13:09:06;;;;;;;8.18;5.90;;;;;;;;;;5111963;27;20031;-77
2023/01/02 13:11:35;;;;;;;8.60;5.63;;;;;;;;;;5104439;27;20118;-76
2023/01/02 13:14:03;;;;;;;7.28;5.43;;;;;;;;;;5112637;27;20483;-76
2023/01/02 13:16:29;;;;;;;8.20;4.68;;;;;;;;;;5113902;27;20030;-76
2023/01/02 13:19:18;;;;;;;11.27;6.78;;;;;;;;;;5109023;27;20027;-73
2023/01/02 13:21:49;;;;;;;7.78;4.93;;;;;;;;;;5114638;27;20106;-73
2023/01/02 13:24:19;;;;;;;7.70;5.70;;;;;;;;;;5115038;27;20031;-74
2023/01/02 13:26:45;;;;;;;8.95;4.97;;;;;;;;;;5109883;27;20019;-73
2023/01/02 13:29:11;;;;;;;10.40;5.15;;;;;;;;;;5112602;27;20018;-74
2023/01/02 13:31:39;;;;;;;11.23;5.70;;;;;;;;;;5105905;27;20102;-72
2023/01/02 13:34:15;;;;;;;9.43;5.35;;;;;;;;;;5107123;27;20038;-74
2023/01/02 13:36:46;;;;;;;7.47;5.13;;;;;;;;;;5109462;27;20058;-74
2023/01/02 13:39:16;;;;;;;8.05;5.43;;;;;;;;;;5112761;27;20126;-73
2023/01/02 13:44:36;;;;;;;6.95;5.25;;;;;;;;;;5105744;27;20057;-74
2023/01/02 13:47:17;;;;;;;12.68;5.45;;;;;;;;;;5104880;27;20020;-75
2023/01/02 13:49:43;;;;;;;8.88;5.35;;;;;;;;;;5107317;27;20463;-73
2023/01/02 13:52:19;;;;;;;6.55;5.40;;;;;;;;;;5109674;27;20025;-73
2023/01/02 13:55:05;;;;;;;9.18;5.47;;;;;;;;;;5107744;27;20024;-73
2023/01/02 13:57:32;;;;;;;10.05;5.80;;;;;;;;;;5094938;27;20107;-74
2023/01/02 13:59:59;;;;;;;9.43;4.78;;;;;;;;;;5111568;27;20019;-73
2023/01/02 14:02:25;;;;;;;12.38;4.88;;;;;;;;;;5110103;27;20088;-73
2023/01/02 14:04:52;;;;;;;10.30;5.30;;;;;;;;;;5105381;27;20578;-73
2023/01/02 14:07:28;;;;;;;9.07;5.55;;;;;;;;;;5108462;27;20385;-73
2023/01/02 14:10:00;;;;;;;7.95;5.70;;;;;;;;;;5113829;27;20050;-73
2023/01/02 14:12:26;;;;;;;8.50;5.28;;;;;;;;;;5112718;27;20032;-72
2023/01/02 14:14:52;;;;;;;9.35;5.30;;;;;;;;;;5115686;27;20032;-73
2023/01/02 14:17:25;;;;;;;15.60;5.95;;;;;;;;;;5120517;27;20027;-72
2023/01/02 14:20:09;;;;;;;13.50;5.68;;;;;;;;;;5116385;27;20053;-73
2023/01/02 14:22:43;;;;;;;11.25;5.93;;;;;;;;;;5110856;27;20363;-73
2023/01/02 14:25:11;;;;;;;9.32;5.78;;;;;;;;;;5115823;27;20036;-72
2023/01/02 14:27:37;;;;;;;9.93;5.25;;;;;;;;;;5114193;27;20035;-73
2023/01/02 14:30:06;;;;;;;11.43;5.43;;;;;;;;;;5107526;27;20076;-74
2023/01/02 14:32:39;;;;;;;11.38;6.05;;;;;;;;;;5120075;27;20043;-73
2023/01/02 14:35:07;;;;;;;9.85;5.85;;;;;;;;;;5113174;27;20057;-73
2023/01/02 14:37:40;;;;;;;8.57;5.82;;;;;;;;;;5111372;27;20019;-73
2023/01/02 14:40:10;;;;;;;11.43;6.70;;;;;;;;;;5110792;27;20031;-73
2023/01/02 14:45:26;;;;;;;9.13;4.95;;;;;;;;;;5114534;27;20928;-73
2023/01/02 14:47:57;;;;;;;16.15;5.50;;;;;;;;;;5113913;27;20863;-73
2023/01/02 14:50:25;;;;;;;10.18;6.22;;;;;;;;;;5114263;27;20455;-73
2023/01/02 14:52:55;;;;;;;9.38;6.10;;;;;;;;;;5113281;27;20027;-73